Time;durP1;ratioP1;P1;durP2;ratioP2;P2;SDS_P1;SDS_P2;PMS_P1;PMS_P2;Temp;Humidity;BMP_temperature;BMP_pressure;BME280_temperature;BME280_humidity;BME280_pressure;Samples;Min_cycle;Max_cycle;Signal;HPM_P1;HPM_P2
2021/05/21 00:01:07;;;;;;;10.55;7.15;;;;;;;12.74;71.56;100023.55;1662046;84;21093;-89
2021/05/21 00:03:35;;;;;;;10.32;6.85;;;;;;;12.77;71.45;100024.53;1660256;84;21076;-87
2021/05/21 00:06:03;;;;;;;14.07;7.62;;;;;;;12.79;71.25;100025.17;1660996;84;21092;-88
2021/05/21 00:08:31;;;;;;;11.95;7.45;;;;;;;12.68;71.90;100031.68;1632463;86;21674;-88
2021/05/21 00:10:56;;;;;;;;;;;;;;;12.77;71.35;100018.38;1663628;84;21635;-89
2021/05/21 00:13:24;;;;;;;12.35;7.35;;;;;;;12.72;71.46;100024.20;1634823;84;20204;-90
2021/05/21 00:15:51;;;;;;;;;;;;;;;12.75;71.47;100022.53;1665303;84;21199;-89
2021/05/21 00:18:18;;;;;;;12.65;7.50;;;;;;;12.64;72.06;100022.92;1661914;84;20260;-92
2021/05/21 00:20:44;;;;;;;11.00;7.03;;;;;;;12.70;72.05;100024.88;1657284;84;21108;-89
2021/05/21 00:23:10;;;;;;;11.48;7.35;;;;;;;12.79;71.65;100022.52;1662481;84;21730;-88
2021/05/21 00:25:41;;;;;;;12.25;8.00;;;;;;;12.69;71.71;100027.20;1634351;86;21769;-91
2021/05/21 00:28:11;;;;;;;11.22;7.75;;;;;;;12.54;72.54;100029.26;1661486;84;21394;-89
2021/05/21 00:30:43;;;;;;;13.00;7.47;;;;;;;12.60;72.27;100025.58;1661542;84;21072;-90
2021/05/21 00:33:10;;;;;;;12.80;7.72;;;;;;;12.55;72.58;100021.64;1662305;85;21168;-92
2021/05/21 00:35:36;;;;;;;;;;;;;;;12.50;72.96;100020.50;1664896;84;21132;-89
2021/05/21 00:38:02;;;;;;;10.55;7.47;;;;;;;12.37;73.49;100023.70;1659841;85;20727;-90
2021/05/21 00:40:31;;;;;;;11.15;7.53;;;;;;;12.41;73.23;100022.34;1663779;84;21196;-90
2021/05/21 00:42:59;;;;;;;11.63;7.55;;;;;;;12.51;72.89;100020.33;1661190;85;21654;-93
2021/05/21 00:45:26;;;;;;;;;;;;;;;12.49;73.10;100011.73;1641601;86;21169;-90
2021/05/21 00:47:57;;;;;;;15.08;8.10;;;;;;;12.51;72.93;100009.73;1667234;84;20625;-90
2021/05/21 00:50:26;;;;;;;12.18;8.10;;;;;;;12.53;73.16;100010.37;1663529;84;21028;-90
2021/05/21 00:52:54;;;;;;;12.65;8.10;;;;;;;12.63;72.82;100009.34;1661610;84;21061;-91
2021/05/21 00:55:26;;;;;;;12.13;8.00;;;;;;;12.74;72.53;100007.66;1657380;84;21055;-91
2021/05/21 00:58:02;;;;;;;13.83;8.15;;;;;;;12.65;72.61;100005.53;1641244;85;21366;-90
2021/05/21 01:00:28;;;;;;;13.48;8.48;;;;;;;12.64;72.64;100008.35;1642310;85;21214;-92
2021/05/21 01:02:54;;;;;;;9.85;6.90;;;;;;;12.70;72.57;99998.39;1637018;86;20944;-93
2021/05/21 01:05:21;;;;;;;12.68;7.67;;;;;;;12.67;72.53;99993.44;1641832;85;22537;-90
2021/05/21 01:07:50;;;;;;;11.25;7.90;;;;;;;12.81;72.13;99990.55;1626656;85;21155;-89
2021/05/21 01:10:16;;;;;;;12.23;8.10;;;;;;;12.89;71.99;99988.66;1645405;85;21186;-92
2021/05/21 01:12:44;;;;;;;11.38;7.60;;;;;;;13.01;71.60;99986.95;1646430;85;20945;-90
2021/05/21 01:15:13;;;;;;;11.48;7.70;;;;;;;13.10;71.33;99985.37;1643390;85;21650;-90
2021/05/21 01:17:40;;;;;;;11.12;7.37;;;;;;;13.01;71.54;99984.30;1643843;85;22336;-90
2021/05/21 01:20:14;;;;;;;12.00;7.90;;;;;;;12.97;71.81;99986.96;1643111;85;22249;-90
2021/05/21 01:22:40;;;;;;;11.35;7.75;;;;;;;12.73;72.49;99987.45;1646837;85;21248;-89
2021/05/21 01:25:08;;;;;;;10.65;7.37;;;;;;;12.75;72.46;99978.81;1644655;85;21136;-93
2021/05/21 01:27:34;;;;;;;10.43;7.37;;;;;;;12.85;72.21;99984.72;1643911;85;21009;-92
2021/05/21 01:30:06;;;;;;;10.98;7.65;;;;;;;12.89;71.93;99979.38;1644748;85;20960;-93
2021/05/21 01:32:34;;;;;;;12.10;7.28;;;;;;;12.99;71.99;99982.30;1642696;85;21125;-91
2021/05/21 01:35:04;;;;;;;11.48;7.17;;;;;;;12.90;72.01;99984.20;1641440;85;21144;-91
2021/05/21 01:37:30;;;;;;;10.85;7.75;;;;;;;12.73;72.67;99984.80;1644920;85;21667;-90
2021/05/21 01:39:57;;;;;;;13.35;8.03;;;;;;;12.85;72.27;99984.72;1640640;85;20922;-92
2021/05/21 01:42:26;;;;;;;13.30;7.85;;;;;;;12.83;72.18;99985.89;1624057;85;26576;-90
2021/05/21 01:44:54;;;;;;;12.90;8.05;;;;;;;12.84;72.40;99976.95;1647337;85;21471;-90
2021/05/21 01:47:23;;;;;;;11.73;7.72;;;;;;;13.01;72.01;99973.69;1645791;85;21268;-90
2021/05/21 01:49:49;;;;;;;11.48;7.85;;;;;;;12.99;71.80;99979.65;1608712;86;21101;-91
2021/05/21 01:52:16;;;;;;;13.38;7.97;;;;;;;13.02;71.70;99979.30;1598916;86;21020;-90
2021/05/21 01:54:51;;;;;;;14.10;8.28;;;;;;;13.05;71.57;99976.30;1644574;85;21118;-91
2021/05/21 01:57:20;;;;;;;10.65;7.10;;;;;;;13.14;71.52;99971.26;1639100;85;21153;-91
2021/05/21 01:59:45;;;;;;;12.60;7.87;;;;;;;13.24;70.93;99973.18;1636298;85;21090;-88
2021/05/21 02:02:16;;;;;;;11.75;7.28;;;;;;;13.23;70.83;99973.36;1599732;87;20963;-89
2021/05/21 02:04:43;;;;;;;12.88;7.95;;;;;;;13.36;70.45;99979.41;1600769;88;21787;-89
2021/05/21 02:07:15;;;;;;;11.40;8.00;;;;;;;13.28;70.54;99979.79;1601208;87;21543;-89
2021/05/21 02:10:05;;;;;;;14.43;7.87;;;;;;;13.04;71.38;99971.50;1602185;87;21089;-90
2021/05/21 02:12:33;;;;;;;13.30;7.42;;;;;;;13.13;71.32;99969.63;1599287;87;21130;-88
2021/05/21 02:15:01;;;;;;;13.10;7.70;;;;;;;12.83;72.25;99974.78;1595859;87;21010;-87
2021/05/21 02:17:29;;;;;;;13.00;8.10;;;;;;;12.95;72.03;99970.42;1604870;88;21690;-89
2021/05/21 02:20:01;;;;;;;12.00;7.75;;;;;;;12.90;71.96;99971.77;1600920;87;21656;-88
2021/05/21 02:22:28;;;;;;;12.50;7.37;;;;;;;12.93;72.12;99974.57;1594674;88;21030;-88
2021/05/21 02:24:58;;;;;;;11.10;8.15;;;;;;;12.97;71.92;99977.69;1603434;88;21432;-87
2021/05/21 02:27:24;;;;;;;13.93;7.67;;;;;;;12.87;72.35;99972.11;1572916;89;21562;-88
2021/05/21 02:29:53;;;;;;;12.90;8.08;;;;;;;12.87;72.49;99972.11;1603548;87;21046;-89
2021/05/21 02:32:29;;;;;;;15.05;8.08;;;;;;;12.93;72.17;99974.06;1602126;89;21603;-90
2021/05/21 02:34:55;;;;;;;11.08;7.70;;;;;;;12.89;72.28;99970.10;1594940;87;21018;-92
2021/05/21 02:37:22;;;;;;;13.05;8.10;;;;;;;12.71;72.97;99981.00;1597991;88;21189;-89
2021/05/21 02:39:48;;;;;;;11.12;7.90;;;;;;;12.71;73.10;99977.53;1566444;89;21050;-90
2021/05/21 02:42:16;;;;;;;10.48;7.45;;;;;;;12.70;73.35;99978.52;1599860;88;20990;-88
2021/05/21 02:44:43;;;;;;;;;;;;;;;12.80;73.00;99973.80;1600737;87;21647;-89
2021/05/21 02:47:09;;;;;;;12.18;7.87;;;;;;;12.83;72.87;99976.10;1568161;89;20275;-90
2021/05/21 02:49:39;;;;;;;11.30;8.43;;;;;;;12.88;72.64;99976.42;1605306;88;21214;-89
2021/05/21 02:52:05;;;;;;;15.40;8.35;;;;;;;12.84;72.57;99973.79;1597375;88;21167;-89
2021/05/21 02:54:34;;;;;;;15.90;8.75;;;;;;;12.92;72.35;99977.70;1594684;88;21472;-90
2021/05/21 02:57:05;;;;;;;12.70;8.43;;;;;;;12.99;72.29;99975.67;1606612;87;21633;-89
2021/05/21 02:59:33;;;;;;;12.58;8.48;;;;;;;12.76;72.99;99977.82;1611779;88;20965;-89
2021/05/21 03:02:00;;;;;;;15.63;8.33;;;;;;;12.80;73.08;99972.48;1609179;87;21765;-90
2021/05/21 03:04:26;;;;;;;12.37;7.83;;;;;;;12.95;72.65;99972.56;1626073;87;21045;-90
2021/05/21 03:06:53;;;;;;;12.13;7.80;;;;;;;12.98;72.34;99970.07;1586999;88;21076;-88
2021/05/21 03:09:21;;;;;;;12.85;8.23;;;;;;;12.82;72.75;99969.17;1650346;85;21003;-90
2021/05/21 03:11:47;;;;;;;13.75;7.97;;;;;;;12.97;72.50;99976.36;1651095;85;21649;-90
2021/05/21 03:14:15;;;;;;;11.63;8.25;;;;;;;12.77;73.13;99979.48;1655042;85;21182;-90
2021/05/21 03:16:40;;;;;;;11.53;8.15;;;;;;;12.64;73.59;99977.89;1652220;86;21122;-89
2021/05/21 03:19:08;;;;;;;11.45;7.97;;;;;;;12.76;73.39;99979.15;1651565;85;20964;-87
2021/05/21 03:21:36;;;;;;;11.60;7.65;;;;;;;12.69;73.30;99982.16;1649208;85;21062;-89
2021/05/21 03:24:05;;;;;;;12.85;8.28;;;;;;;12.80;73.60;99986.23;1654242;85;21108;-89
2021/05/21 03:26:35;;;;;;;13.08;8.05;;;;;;;12.55;73.99;99981.06;1649879;85;21032;-88
2021/05/21 03:29:03;;;;;;;12.20;7.95;;;;;;;12.47;74.33;99979.28;1655524;85;20957;-88
2021/05/21 03:31:34;;;;;;;12.05;7.65;;;;;;;12.43;74.87;99975.34;1621685;86;21044;-90
2021/05/21 03:34:05;;;;;;;17.48;8.70;;;;;;;12.44;74.82;99977.48;1625424;86;21404;-90
2021/05/21 03:36:31;;;;;;;14.45;8.55;;;;;;;12.34;75.05;99969.25;1651484;86;21057;-88
2021/05/21 03:38:57;;;;;;;13.55;8.50;;;;;;;12.44;74.68;99976.98;1604608;86;20977;-88
2021/05/21 03:41:24;;;;;;;13.88;8.53;;;;;;;12.12;76.12;99981.42;1652918;86;27642;-87
2021/05/21 03:43:53;;;;;;;11.50;8.00;;;;;;;12.19;75.90;99971.78;1649993;85;20973;-89
2021/05/21 03:46:24;;;;;;;12.78;8.18;;;;;;;12.42;75.21;99972.36;1655709;85;21096;-89
2021/05/21 03:48:53;;;;;;;13.85;8.80;;;;;;;12.18;75.99;99970.15;1633278;85;21324;-89
2021/05/21 03:51:25;;;;;;;14.58;8.50;;;;;;;12.31;75.62;99972.75;1654201;84;22344;-90
2021/05/21 03:53:53;;;;;;;13.53;9.23;;;;;;;12.26;76.00;99978.56;1651275;85;21044;-89
2021/05/21 03:56:22;;;;;;;14.90;9.20;;;;;;;12.10;76.55;99968.83;1652173;85;21024;-89
2021/05/21 03:58:49;;;;;;;14.80;9.53;;;;;;;12.07;76.75;99971.82;1648401;86;21614;-89
2021/05/21 04:01:16;;;;;;;;;;;;;;;12.08;76.75;99973.98;1635639;85;21159;-89
2021/05/21 04:03:44;;;;;;;14.35;9.23;;;;;;;12.15;76.76;99963.87;1660662;85;21711;-88
2021/05/21 04:06:15;;;;;;;16.45;9.40;;;;;;;12.36;76.01;99958.48;1660520;85;21684;-88
2021/05/21 04:08:43;;;;;;;15.13;9.73;;;;;;;12.39;76.14;99960.79;1657238;85;21630;-90
2021/05/21 04:11:12;;;;;;;;;;;;;;;12.30;76.34;99969.26;1663103;85;21150;-88
2021/05/21 04:13:39;;;;;;;18.60;10.18;;;;;;;12.32;76.09;99970.41;1656388;85;20264;-92
2021/05/21 04:16:05;;;;;;;;;;;;;;;12.27;76.51;99968.27;1660578;84;21091;-89
2021/05/21 04:18:31;;;;;;;13.78;9.78;;;;;;;12.34;76.40;99971.09;1656782;85;20259;-91
2021/05/21 04:20:59;;;;;;;16.32;8.93;;;;;;;12.41;76.02;99970.70;1659191;85;25157;-89
2021/05/21 04:23:28;;;;;;;;;;;;;;;12.18;76.97;99968.83;1659880;85;21079;-90
2021/05/21 04:25:55;;;;;;;16.62;9.80;;;;;;;12.33;76.45;99969.42;1659330;85;20236;-93
2021/05/21 04:28:21;;;;;;;15.55;10.63;;;;;;;12.40;76.02;99967.75;1658857;85;21216;-92
2021/05/21 04:30:47;;;;;;;15.57;9.83;;;;;;;12.30;76.48;99969.77;1658734;86;20909;-90
2021/05/21 04:33:12;;;;;;;16.42;9.90;;;;;;;12.31;76.33;99970.10;1658466;85;20936;-90
2021/05/21 04:35:38;;;;;;;16.42;10.60;;;;;;;12.48;76.04;99967.70;1658981;85;20914;-89
2021/05/21 04:38:08;;;;;;;14.95;9.85;;;;;;;12.44;76.10;99973.00;1659219;85;20952;-89
2021/05/21 04:40:35;;;;;;;19.00;11.08;;;;;;;12.45;75.94;99975.99;1658963;85;21044;-89
2021/05/21 04:43:04;;;;;;;11.88;7.33;;;;;;;12.42;76.11;99969.72;1659340;86;21115;-91
2021/05/21 04:45:31;;;;;;;14.53;9.90;;;;;;;12.61;75.59;99971.61;1657555;86;21028;-90
2021/05/21 04:47:56;;;;;;;15.00;9.58;;;;;;;12.67;75.21;99973.05;1658529;85;21064;-92
2021/05/21 04:50:24;;;;;;;16.37;9.65;;;;;;;12.68;75.22;99975.23;1662548;85;20988;-91
2021/05/21 04:52:55;;;;;;;15.43;9.63;;;;;;;12.68;75.21;99977.87;1660338;86;21056;-91
2021/05/21 04:55:24;;;;;;;19.12;9.45;;;;;;;12.80;74.34;99975.12;1660041;85;21116;-90
2021/05/21 04:57:53;;;;;;;13.98;8.95;;;;;;;13.15;73.42;99976.89;1646316;85;21021;-89
2021/05/21 05:00:21;;;;;;;18.07;9.45;;;;;;;13.32;72.56;99967.50;1628878;87;21107;-88
2021/05/21 05:02:47;;;;;;;17.45;9.25;;;;;;;13.48;71.92;99967.88;1628470;86;21044;-89
2021/05/21 05:05:16;;;;;;;19.65;9.60;;;;;;;13.29;71.97;99966.83;1631700;87;21187;-87
2021/05/21 05:07:42;;;;;;;18.35;10.15;;;;;;;13.39;71.68;99969.77;1623535;87;21638;-89
2021/05/21 05:10:13;;;;;;;11.63;8.28;;;;;;;13.48;71.38;99965.23;1630401;86;20973;-89
2021/05/21 05:12:42;;;;;;;17.67;9.05;;;;;;;13.45;71.08;99967.25;1632547;86;21073;-90
2021/05/21 05:15:09;;;;;;;15.53;9.30;;;;;;;13.46;71.37;99968.06;1636247;87;21008;-88
2021/05/21 05:17:37;;;;;;;14.65;8.00;;;;;;;13.56;71.05;99965.96;1629519;86;21369;-89
2021/05/21 05:20:05;;;;;;;;;;;;;;;13.74;70.32;99970.13;1632439;86;21638;-89
2021/05/21 05:22:35;;;;;;;15.38;8.30;;;;;;;13.56;70.46;99975.25;1634332;86;20229;-88
2021/05/21 05:25:00;;;;;;;14.38;8.48;;;;;;;13.58;70.90;99973.26;1632408;86;21053;-89
2021/05/21 05:27:26;;;;;;;11.83;8.15;;;;;;;13.80;70.12;99978.69;1627578;86;21037;-86
2021/05/21 05:29:52;;;;;;;15.98;9.30;;;;;;;13.66;70.10;99981.64;1629567;87;21329;-89
2021/05/21 05:32:19;;;;;;;14.93;8.30;;;;;;;13.60;70.42;99981.85;1631172;83;21033;-88
2021/05/21 05:34:45;;;;;;;13.53;8.25;;;;;;;13.63;70.00;99977.52;1636471;87;28830;-90
2021/05/21 05:37:14;;;;;;;15.25;8.38;;;;;;;13.59;70.23;99966.93;1626728;87;21002;-91
2021/05/21 05:39:42;;;;;;;15.15;8.05;;;;;;;13.76;69.79;99972.09;1622912;87;21072;-91
2021/05/21 05:42:08;;;;;;;12.98;7.80;;;;;;;13.87;69.32;99962.34;1601829;87;22022;-91
2021/05/21 05:44:35;;;;;;;14.40;7.70;;;;;;;13.85;69.19;99968.34;1607736;87;21074;-91
2021/05/21 05:47:04;;;;;;;14.60;7.75;;;;;;;13.86;69.19;99966.02;1602206;87;21758;-90
2021/05/21 05:49:31;;;;;;;14.68;8.38;;;;;;;14.18;68.26;99975.94;1628272;85;21163;-91
2021/05/21 05:51:59;;;;;;;14.47;7.95;;;;;;;14.15;68.14;99978.97;1607603;86;21087;-91
2021/05/21 05:54:26;;;;;;;12.65;7.33;;;;;;;14.23;67.98;99974.91;1627201;87;21118;-91
2021/05/21 05:56:53;;;;;;;10.70;7.00;;;;;;;14.18;68.12;99973.28;1587283;86;21176;-91
2021/05/21 05:59:22;;;;;;;15.80;8.08;;;;;;;14.42;67.56;99975.31;1646685;85;21847;-89
2021/05/21 06:01:49;;;;;;;13.08;6.80;;;;;;;14.33;67.68;99970.12;1605953;86;21002;-90
2021/05/21 06:04:15;;;;;;;11.63;7.00;;;;;;;14.42;66.98;99968.19;1644090;86;21342;-89
2021/05/21 06:06:43;;;;;;;14.55;7.25;;;;;;;14.59;66.69;99962.16;1643900;85;21074;-89
2021/05/21 06:09:09;;;;;;;;;;;;;;;14.64;66.74;99961.11;1644366;85;21206;-86
2021/05/21 06:11:37;;;;;;;13.13;7.23;;;;;;;14.67;66.42;99961.25;1646614;85;20644;-89
2021/05/21 06:14:04;;;;;;;10.05;6.10;;;;;;;14.69;66.65;99964.02;1645452;85;21035;-91
2021/05/21 06:16:29;;;;;;;10.98;6.67;;;;;;;14.91;65.98;99958.73;1644930;85;21169;-83
2021/05/21 06:18:57;;;;;;;13.08;6.42;;;;;;;15.05;65.30;99960.50;1644160;85;21056;-87
2021/05/21 06:21:23;;;;;;;;;;;;;;;15.00;64.53;99961.58;1650101;85;21625;-80
2021/05/21 06:23:48;;;;;;;9.75;5.90;;;;;;;15.01;63.69;99961.91;1650986;85;20573;-88
2021/05/21 06:26:30;;;;;;;10.95;6.50;;;;;;;15.08;63.85;99962.78;1634196;85;21002;-84
2021/05/21 06:28:45;;;;;;;13.43;6.12;;;;;;;15.10;63.44;99958.59;1644351;85;21140;-85
2021/05/21 06:31:12;;;;;;;11.48;6.03;;;;;;;15.04;63.50;99961.53;1633714;86;21102;-85
2021/05/21 06:33:39;;;;;;;11.08;5.75;;;;;;;15.29;63.32;99949.17;1645340;85;21069;-86
2021/05/21 06:36:05;;;;;;;12.20;6.10;;;;;;;15.55;62.05;99951.71;1642246;85;21712;-86
2021/05/21 06:38:31;;;;;;;10.60;5.20;;;;;;;15.61;61.81;99949.12;1652228;85;20979;-86
2021/05/21 06:40:56;;;;;;;8.75;5.20;;;;;;;15.76;60.55;99935.68;1645545;85;21100;-88
2021/05/21 06:43:22;;;;;;;12.20;5.20;;;;;;;15.72;60.46;99937.11;1651790;85;21309;-87
2021/05/21 06:45:50;;;;;;;9.33;4.70;;;;;;;15.77;60.75;99929.38;1645586;84;21034;-85
2021/05/21 06:48:16;;;;;;;9.68;4.50;;;;;;;16.02;59.72;99938.22;1649464;85;21106;-87
2021/05/21 06:50:44;;;;;;;11.40;4.67;;;;;;;16.17;59.53;99930.08;1651340;84;20948;-84
2021/05/21 06:53:10;;;;;;;11.68;4.62;;;;;;;16.21;59.31;99930.53;1650130;85;21750;-84
2021/05/21 06:55:39;;;;;;;10.65;4.28;;;;;;;16.41;58.45;99926.09;1628558;85;21110;-83
2021/05/21 06:58:06;;;;;;;10.05;4.03;;;;;;;16.43;58.80;99921.38;1646616;84;21122;-88
2021/05/21 07:00:38;;;;;;;7.92;3.83;;;;;;;16.57;58.62;99923.56;1646516;85;21096;-85
2021/05/21 07:03:04;;;;;;;6.80;3.20;;;;;;;16.60;57.23;99921.83;1640728;85;21035;-84
2021/05/21 07:05:29;;;;;;;5.22;2.90;;;;;;;16.39;55.19;99922.81;1642758;85;21099;-86
2021/05/21 07:07:59;;;;;;;6.53;3.50;;;;;;;16.44;55.10;99927.02;1645295;85;21852;-86
2021/05/21 07:10:25;;;;;;;6.37;3.22;;;;;;;16.45;55.84;99923.84;1646466;86;21088;-87
2021/05/21 07:12:59;;;;;;;4.62;2.77;;;;;;;16.63;56.44;99916.62;1644626;86;20946;-85
2021/05/21 07:15:26;;;;;;;3.52;2.20;;;;;;;16.74;54.27;99913.35;1647160;84;21642;-91
2021/05/21 07:17:54;;;;;;;6.20;2.87;;;;;;;16.65;51.92;99918.04;1650027;85;21136;-85
2021/05/21 07:20:21;;;;;;;5.90;2.80;;;;;;;16.54;52.84;99915.97;1648386;85;21844;-84
2021/05/21 07:22:47;;;;;;;7.03;2.55;;;;;;;16.87;52.67;99912.58;1651432;84;21061;-85
2021/05/21 07:25:15;;;;;;;5.55;2.40;;;;;;;16.85;53.06;99914.08;1646931;84;21017;-87
2021/05/21 07:27:44;;;;;;;5.70;2.17;;;;;;;17.13;52.04;99909.63;1626826;86;21115;-84
2021/05/21 07:30:14;;;;;;;6.50;2.50;;;;;;;17.32;50.19;99905.30;1645669;85;21124;-87
2021/05/21 07:32:44;;;;;;;5.47;2.00;;;;;;;17.28;49.85;99906.77;1646203;85;21128;-83
2021/05/21 07:35:14;;;;;;;4.67;1.80;;;;;;;17.43;49.66;99903.34;1623331;85;21191;-90
2021/05/21 07:37:42;;;;;;;5.12;2.02;;;;;;;17.41;46.65;99894.73;1627312;85;21051;-88
2021/05/21 07:40:08;;;;;;;2.20;1.57;;;;;;;17.31;46.92;99895.64;1645156;85;21123;-87
2021/05/21 07:42:36;;;;;;;2.15;1.50;;;;;;;17.64;46.67;99891.61;1647958;85;21109;-85
2021/05/21 07:45:07;;;;;;;4.30;1.55;;;;;;;17.81;45.66;99890.64;1629843;86;21116;-86
2021/05/21 07:47:35;;;;;;;3.52;1.70;;;;;;;17.62;43.24;99892.34;1648304;85;21186;-85
2021/05/21 07:50:04;;;;;;;3.80;1.67;;;;;;;17.66;44.32;99887.39;1650199;85;21099;-91
2021/05/21 07:52:33;;;;;;;3.37;1.80;;;;;;;17.82;43.86;99886.95;1652715;83;21143;-87
2021/05/21 07:55:02;;;;;;;4.28;1.60;;;;;;;17.84;42.51;99880.88;1649933;85;21155;-85
2021/05/21 07:57:30;;;;;;;2.25;1.40;;;;;;;17.53;42.91;99898.41;1651101;85;21176;-86
2021/05/21 07:59:57;;;;;;;5.87;1.72;;;;;;;17.65;42.24;99880.41;1650499;85;21146;-84
2021/05/21 08:02:31;;;;;;;2.47;1.20;;;;;;;17.87;41.96;99877.78;1650777;85;21061;-88
2021/05/21 08:04:56;;;;;;;2.30;1.30;;;;;;;18.04;41.64;99884.03;1652251;84;21102;-86
2021/05/21 08:07:22;;;;;;;2.77;1.50;;;;;;;18.16;41.72;99880.16;1650778;85;21802;-86
2021/05/21 08:09:51;;;;;;;2.77;1.50;;;;;;;17.94;40.28;99887.13;1652949;85;21285;-87
2021/05/21 08:12:21;;;;;;;3.25;1.50;;;;;;;17.78;38.84;99872.36;1651570;85;21139;-86
2021/05/21 08:14:50;;;;;;;4.42;1.20;;;;;;;18.02;39.49;99870.88;1624516;86;21152;-85
2021/05/21 08:17:16;;;;;;;2.20;1.20;;;;;;;17.94;38.74;99867.94;1645080;85;21071;-89
2021/05/21 08:19:41;;;;;;;3.47;1.40;;;;;;;18.24;38.45;99859.37;1624189;86;20941;-85
2021/05/21 08:22:07;;;;;;;3.33;1.20;;;;;;;18.41;38.90;99861.52;1655767;85;21068;-88
2021/05/21 08:24:33;;;;;;;2.90;1.20;;;;;;;18.34;37.23;99856.75;1641682;85;20964;-85
2021/05/21 08:27:00;;;;;;;2.62;1.30;;;;;;;18.46;37.52;99856.37;1629423;85;20996;-88
2021/05/21 08:29:26;;;;;;;3.70;1.30;;;;;;;18.61;37.30;99856.89;1626179;86;21289;-88
2021/05/21 08:31:52;;;;;;;3.35;1.30;;;;;;;18.79;37.75;99840.07;1643554;85;21621;-86
2021/05/21 08:34:18;;;;;;;1.40;0.90;;;;;;;18.81;38.25;99843.87;1644202;85;21901;-86
2021/05/21 08:36:43;;;;;;;2.00;1.30;;;;;;;18.45;35.14;99841.34;1627107;86;20964;-85
2021/05/21 08:39:09;;;;;;;1.42;1.00;;;;;;;18.39;35.43;99847.55;1647368;86;20906;-88
2021/05/21 08:41:38;;;;;;;2.15;0.88;;;;;;;18.48;35.80;99847.60;1649262;85;20938;-84
2021/05/21 08:44:07;;;;;;;4.20;1.40;;;;;;;18.89;35.98;99840.94;1646522;86;21104;-85
2021/05/21 08:46:35;;;;;;;1.55;1.17;;;;;;;19.15;36.84;99837.75;1625670;85;21383;-91
2021/05/21 08:49:02;;;;;;;2.02;1.20;;;;;;;19.14;35.68;99838.78;1622595;86;21127;-84
2021/05/21 08:51:29;;;;;;;2.12;0.90;;;;;;;18.81;34.22;99835.84;1643656;86;21160;-87
2021/05/21 08:53:55;;;;;;;2.65;1.00;;;;;;;18.82;33.65;99837.49;1645117;85;21120;-87
2021/05/21 08:56:23;;;;;;;7.17;1.27;;;;;;;18.71;33.87;99831.52;1646911;85;21098;-88
2021/05/21 08:58:49;;;;;;;2.37;1.00;;;;;;;18.64;33.36;99836.39;1654546;85;21313;-83
2021/05/21 09:01:20;;;;;;;3.12;1.05;;;;;;;18.77;34.32;99826.63;1670021;84;20945;-84
2021/05/21 09:03:49;;;;;;;3.92;1.30;;;;;;;18.98;34.54;99825.45;1672880;84;21078;-85
2021/05/21 09:06:21;;;;;;;4.03;1.40;;;;;;;19.23;35.17;99832.10;1673816;84;21127;-88
2021/05/21 09:08:56;;;;;;;2.17;1.10;;;;;;;18.57;36.01;99831.60;1671001;84;21229;-87
2021/05/21 09:11:34;;;;;;;3.33;1.10;;;;;;;18.92;36.16;99823.11;1668062;84;21139;-85
2021/05/21 09:14:25;;;;;;;2.60;1.20;;;;;;;19.11;36.00;99814.62;1646506;85;39725;-87
2021/05/21 09:16:55;;;;;;;3.80;1.30;;;;;;;18.70;36.34;99821.84;1671847;84;21181;-88
2021/05/21 09:19:23;;;;;;;2.40;1.10;;;;;;;18.69;35.66;99814.84;1670115;84;20961;-84
2021/05/21 09:22:09;;;;;;;4.03;1.50;;;;;;;18.71;35.47;99814.12;1671189;84;21833;-85
2021/05/21 09:24:52;;;;;;;1.85;1.17;;;;;;;18.61;36.32;99813.26;1669712;84;21589;-82
2021/05/21 09:27:20;;;;;;;2.60;1.22;;;;;;;18.69;36.25;99814.84;1673282;84;21072;-86
2021/05/21 09:29:56;;;;;;;2.60;1.40;;;;;;;19.05;36.70;99816.84;1669640;84;21295;-86
2021/05/21 09:32:32;;;;;;;3.95;1.35;;;;;;;18.98;36.64;99814.20;1646517;85;21036;-85
2021/05/21 09:35:13;;;;;;;3.17;1.63;;;;;;;19.24;37.62;99816.88;1672918;84;21074;-86
2021/05/21 09:37:52;;;;;;;3.25;1.47;;;;;;;18.95;37.60;99814.65;1646162;84;21089;-86
2021/05/21 09:40:35;;;;;;;6.20;1.50;;;;;;;19.19;37.29;99801.48;1669908;84;21095;-86
2021/05/21 09:43:04;;;;;;;3.05;1.42;;;;;;;19.27;37.36;99805.73;1670902;84;21103;-87
2021/05/21 09:45:39;;;;;;;2.55;1.47;;;;;;;19.47;36.44;99793.47;1645545;85;21108;-84
2021/05/21 09:48:08;;;;;;;2.83;1.42;;;;;;;19.53;36.02;99788.55;1667559;84;21119;-84
2021/05/21 09:50:49;;;;;;;3.08;1.40;;;;;;;19.82;36.23;99780.80;1670098;84;21183;-86
2021/05/21 09:53:22;;;;;;;2.85;1.60;;;;;;;19.91;35.94;99791.50;1671544;84;21020;-89
2021/05/21 09:56:01;;;;;;;2.08;1.27;;;;;;;19.95;35.48;99787.34;1669151;84;21095;-85
2021/05/21 09:58:40;;;;;;;3.08;1.50;;;;;;;20.05;35.74;99794.29;1673040;84;21239;-85
2021/05/21 10:01:21;;;;;;;4.28;1.55;;;;;;;20.07;35.65;99784.18;1666205;84;21099;-86
2021/05/21 10:03:58;;;;;;;2.17;1.30;;;;;;;20.34;34.99;99774.91;1662272;84;21171;-84
2021/05/21 10:06:28;;;;;;;5.33;1.45;;;;;;;20.19;35.41;99782.05;1660468;84;21197;-84
2021/05/21 10:08:59;;;;;;;3.92;1.50;;;;;;;19.81;36.55;99773.80;1654072;85;21069;-84
2021/05/21 10:11:27;;;;;;;3.40;1.60;;;;;;;19.84;36.39;99772.84;1634657;86;21056;-78
2021/05/21 10:13:58;;;;;;;2.65;1.52;;;;;;;19.87;36.87;99779.09;1636582;86;22257;-86
2021/05/21 10:16:26;;;;;;;2.12;1.50;;;;;;;19.51;36.24;99771.87;1659592;85;22258;-89
2021/05/21 10:18:55;;;;;;;4.00;1.70;;;;;;;19.82;36.54;99767.40;1660754;84;21044;-87
2021/05/21 10:21:27;;;;;;;2.75;1.60;;;;;;;20.05;36.67;99763.47;1662734;84;21052;-87
2021/05/21 10:24:06;;;;;;;4.37;1.37;;;;;;;20.31;36.56;99752.06;1662061;84;21152;-87
2021/05/21 10:26:38;;;;;;;3.80;1.40;;;;;;;19.72;34.62;99763.37;1637712;86;21268;-86
2021/05/21 10:29:11;;;;;;;2.67;1.42;;;;;;;20.14;34.94;99756.45;1631440;86;20985;-86
2021/05/21 10:31:39;;;;;;;3.45;1.60;;;;;;;20.19;34.66;99764.63;1651104;84;21105;-89
2021/05/21 10:34:27;;;;;;;3.02;1.30;;;;;;;20.00;34.80;99772.72;1632961;84;21571;-88
2021/05/21 10:36:53;;;;;;;4.55;1.30;;;;;;;20.14;35.24;99750.56;1661497;84;21131;-89
2021/05/21 10:39:23;;;;;;;3.10;1.50;;;;;;;19.97;36.20;99756.28;1661008;84;21147;-88
2021/05/21 10:41:59;;;;;;;3.92;1.27;;;;;;;19.98;35.40;99746.67;1662316;84;21300;-86
2021/05/21 10:44:39;;;;;;;3.30;1.30;;;;;;;20.17;35.06;99734.55;1661838;84;21209;-85
2021/05/21 10:47:25;;;;;;;4.28;1.67;;;;;;;20.00;35.16;99751.28;1637386;84;21016;-87
2021/05/21 10:50:05;;;;;;;2.57;1.43;;;;;;;19.88;35.46;99737.02;1663128;84;21203;-87
2021/05/21 10:53:07;;;;;;;5.85;1.75;;;;;;;19.53;35.75;99745.70;1637769;85;21377;-90
2021/05/21 10:55:52;;;;;;;3.10;1.75;;;;;;;19.96;34.83;99724.63;1664356;84;21089;-87
2021/05/21 10:58:30;;;;;;;2.77;1.37;;;;;;;19.84;33.81;99722.43;1662474;84;21697;-85
2021/05/21 11:01:25;;;;;;;3.20;1.50;;;;;;;20.40;34.67;99731.91;1602847;87;21109;-85
2021/05/21 11:04:02;;;;;;;2.67;1.37;;;;;;;20.02;35.13;99721.56;1604993;88;21130;-85
2021/05/21 11:06:32;;;;;;;4.25;1.40;;;;;;;20.06;35.10;99718.20;1602718;87;21208;-84
2021/05/21 11:09:13;;;;;;;3.85;1.60;;;;;;;19.66;35.33;99706.67;1636623;86;21129;-82
2021/05/21 11:12:03;;;;;;;3.95;1.60;;;;;;;19.83;34.98;99700.19;1638274;86;21126;-88
2021/05/21 11:14:48;;;;;;;5.10;1.60;;;;;;;19.88;34.52;99691.47;1632946;85;21075;-86
2021/05/21 11:17:28;;;;;;;3.92;1.50;;;;;;;20.31;34.40;99679.66;1636991;85;20975;-83
2021/05/21 11:20:08;;;;;;;3.30;1.57;;;;;;;20.23;35.32;99678.67;1613575;86;21099;-84
2021/05/21 11:22:41;;;;;;;2.60;1.50;;;;;;;20.37;35.55;99688.13;1633426;86;21179;-87
2021/05/21 11:25:15;;;;;;;2.30;1.55;;;;;;;20.44;35.77;99688.80;1632296;85;22436;-84
2021/05/21 11:27:46;;;;;;;3.85;1.50;;;;;;;20.24;35.46;99669.56;1635297;85;21128;-83
2021/05/21 11:30:20;;;;;;;2.50;1.40;;;;;;;20.78;35.61;99674.31;1635605;85;21035;-87
2021/05/21 11:32:46;;;;;;;2.47;1.50;;;;;;;20.84;35.61;99674.44;1635180;86;21106;-84
2021/05/21 11:35:15;;;;;;;2.33;1.20;;;;;;;20.69;33.34;99664.98;1638007;85;21005;-84
2021/05/21 11:37:43;;;;;;;2.05;1.30;;;;;;;20.11;32.79;99684.54;1635051;85;21054;-86
2021/05/21 11:40:10;;;;;;;4.37;1.60;;;;;;;20.13;33.54;99666.34;1635305;85;20987;-82
2021/05/21 11:42:36;;;;;;;2.67;1.22;;;;;;;20.27;34.04;99669.09;1634669;86;21091;-82